N626PC RPVB-RPLS
Flight info
| Callsign | N626PC |
|---|---|
| Flight time | 1h 18m |
| Altitude | 8500 |
| Route | VFR |
| Aircraft | AEST/L-SDF/C |
Departure
| Time | 2026-05-07 22:27 |
|---|---|
| Airport | Bacolod-Silay International Airport (RPVB) |
Arrival
| Time | 2026-05-07 23:45 |
|---|---|
| Airport | Danilo Atienza Air Base (RPLS) |
| Time | Latitude | Longitude | Altitude | Speed | Heading |
|---|---|---|---|---|---|
| 2026-05-07 22:08 | 10.77275 | 123.01374 | 81 ft | 0 kts | 30° |
| 2026-05-07 22:21 | 10.77279 | 123.01378 | 81 ft | 4 kts | 68° |
| 2026-05-07 22:21 | 10.77280 | 123.01405 | 83 ft | 0 kts | 30° |
| 2026-05-07 22:24 | 10.77288 | 123.01409 | 81 ft | 4 kts | 30° |
| 2026-05-07 22:24 | 10.77313 | 123.01425 | 82 ft | 4 kts | 45° |
| 2026-05-07 22:24 | 10.77333 | 123.01468 | 81 ft | 10 kts | 25° |
| 2026-05-07 22:24 | 10.77372 | 123.01508 | 88 ft | 10 kts | 114° |
| 2026-05-07 22:25 | 10.77325 | 123.01584 | 88 ft | 16 kts | 120° |
| 2026-05-07 22:25 | 10.77246 | 123.01651 | 88 ft | 18 kts | 183° |
| 2026-05-07 22:25 | 10.77113 | 123.01586 | 91 ft | 24 kts | 210° |
| 2026-05-07 22:25 | 10.76978 | 123.01505 | 90 ft | 14 kts | 212° |
| 2026-05-07 22:26 | 10.76940 | 123.01459 | 90 ft | 12 kts | 242° |
| 2026-05-07 22:26 | 10.76903 | 123.01451 | 92 ft | 9 kts | 89° |
| 2026-05-07 22:26 | 10.76921 | 123.01473 | 91 ft | 0 kts | 29° |
| 2026-05-07 22:26 | 10.76923 | 123.01474 | 91 ft | 9 kts | 28° |
| 2026-05-07 22:27 | 10.77238 | 123.01658 | 88 ft | 86 kts | 30° |
| 2026-05-07 22:27 | 10.77834 | 123.01998 | 192 ft | 106 kts | 30° |
| 2026-05-07 22:27 | 10.78550 | 123.02388 | 413 ft | 129 kts | 31° |
| 2026-05-07 22:27 | 10.79414 | 123.02837 | 719 ft | 143 kts | 28° |
| 2026-05-07 22:28 | 10.80291 | 123.03281 | 1128 ft | 142 kts | 23° |
| 2026-05-07 22:28 | 10.81301 | 123.03362 | 1334 ft | 155 kts | 351° |
| 2026-05-07 22:28 | 10.82244 | 123.02778 | 1549 ft | 165 kts | 316° |
| 2026-05-07 22:28 | 10.82986 | 123.01874 | 1903 ft | 168 kts | 316° |
| 2026-05-07 22:29 | 10.83806 | 123.01019 | 2241 ft | 170 kts | 320° |
| 2026-05-07 22:29 | 10.84685 | 123.00197 | 2574 ft | 173 kts | 324° |
| 2026-05-07 22:29 | 10.85626 | 122.99424 | 2890 ft | 174 kts | 328° |
| 2026-05-07 22:29 | 10.86601 | 122.98681 | 3196 ft | 176 kts | 329° |
| 2026-05-07 22:30 | 10.87592 | 122.97948 | 3466 ft | 177 kts | 329° |
| 2026-05-07 22:30 | 10.88582 | 122.97204 | 3743 ft | 177 kts | 329° |
| 2026-05-07 22:30 | 10.89576 | 122.96460 | 4016 ft | 178 kts | 329° |
| 2026-05-07 22:30 | 10.90567 | 122.95704 | 4285 ft | 178 kts | 329° |
| 2026-05-07 22:31 | 10.91555 | 122.94947 | 4549 ft | 178 kts | 329° |
| 2026-05-07 22:31 | 10.92545 | 122.94195 | 4799 ft | 177 kts | 329° |
| 2026-05-07 22:31 | 10.93534 | 122.93452 | 5037 ft | 176 kts | 330° |
| 2026-05-07 22:31 | 10.94519 | 122.92710 | 5270 ft | 175 kts | 330° |
| 2026-05-07 22:32 | 10.95497 | 122.91973 | 5497 ft | 175 kts | 330° |
| 2026-05-07 22:32 | 10.96461 | 122.91248 | 5715 ft | 174 kts | 330° |
| 2026-05-07 22:32 | 10.97435 | 122.90518 | 5935 ft | 173 kts | 330° |
| 2026-05-07 22:32 | 10.98398 | 122.89796 | 6152 ft | 172 kts | 330° |
| 2026-05-07 22:33 | 10.99372 | 122.89076 | 6363 ft | 173 kts | 331° |
| 2026-05-07 22:33 | 11.00362 | 122.88382 | 6568 ft | 173 kts | 332° |
| 2026-05-07 22:33 | 11.01356 | 122.87689 | 6768 ft | 173 kts | 332° |
| 2026-05-07 22:33 | 11.02346 | 122.86999 | 6960 ft | 172 kts | 332° |
| 2026-05-07 22:34 | 11.03335 | 122.86308 | 7139 ft | 173 kts | 332° |
| 2026-05-07 22:34 | 11.04322 | 122.85618 | 7311 ft | 172 kts | 332° |
| 2026-05-07 22:34 | 11.05310 | 122.84940 | 7509 ft | 171 kts | 333° |
| 2026-05-07 22:34 | 11.06297 | 122.84268 | 7682 ft | 172 kts | 333° |
| 2026-05-07 22:35 | 11.07295 | 122.83590 | 7861 ft | 173 kts | 333° |
| 2026-05-07 22:35 | 11.08316 | 122.82930 | 8039 ft | 175 kts | 335° |
| 2026-05-07 22:35 | 11.09351 | 122.82272 | 8209 ft | 176 kts | 335° |
| 2026-05-07 22:35 | 11.10383 | 122.81613 | 8365 ft | 176 kts | 335° |
| 2026-05-07 22:36 | 11.11440 | 122.80943 | 8456 ft | 181 kts | 335° |
| 2026-05-07 22:36 | 11.12505 | 122.80267 | 8562 ft | 182 kts | 335° |
| 2026-05-07 22:36 | 11.13623 | 122.79566 | 8502 ft | 194 kts | 335° |
| 2026-05-07 22:36 | 11.14768 | 122.78854 | 8516 ft | 197 kts | 335° |
| 2026-05-07 22:37 | 11.15949 | 122.78122 | 8516 ft | 201 kts | 335° |
| 2026-05-07 22:37 | 11.17166 | 122.77369 | 8517 ft | 204 kts | 335° |
| 2026-05-07 22:37 | 11.18400 | 122.76652 | 8520 ft | 209 kts | 339° |
| 2026-05-07 22:37 | 11.19719 | 122.75986 | 8511 ft | 213 kts | 340° |
| 2026-05-07 22:38 | 11.21060 | 122.75321 | 8518 ft | 215 kts | 340° |
| 2026-05-07 22:38 | 11.22412 | 122.74653 | 8513 ft | 218 kts | 340° |
| 2026-05-07 22:38 | 11.23784 | 122.73978 | 8515 ft | 219 kts | 340° |
| 2026-05-07 22:38 | 11.25155 | 122.73303 | 8517 ft | 219 kts | 340° |
| 2026-05-07 22:39 | 11.26532 | 122.72626 | 8519 ft | 221 kts | 340° |
| 2026-05-07 22:39 | 11.27919 | 122.71944 | 8513 ft | 222 kts | 340° |
| 2026-05-07 22:39 | 11.29311 | 122.71260 | 8528 ft | 222 kts | 340° |
| 2026-05-07 22:39 | 11.30699 | 122.70579 | 8525 ft | 222 kts | 341° |
| 2026-05-07 22:40 | 11.32109 | 122.69930 | 8522 ft | 221 kts | 342° |
| 2026-05-07 22:40 | 11.33512 | 122.69298 | 8520 ft | 221 kts | 342° |
| 2026-05-07 22:40 | 11.34915 | 122.68667 | 8519 ft | 220 kts | 342° |
| 2026-05-07 22:40 | 11.36311 | 122.68039 | 8520 ft | 219 kts | 342° |
| 2026-05-07 22:41 | 11.37700 | 122.67414 | 8523 ft | 218 kts | 342° |
| 2026-05-07 22:41 | 11.39085 | 122.66790 | 8522 ft | 217 kts | 342° |
| 2026-05-07 22:41 | 11.40468 | 122.66167 | 8522 ft | 218 kts | 342° |
| 2026-05-07 22:41 | 11.41857 | 122.65542 | 8520 ft | 219 kts | 342° |
| 2026-05-07 22:42 | 11.43251 | 122.64915 | 8519 ft | 219 kts | 342° |
| 2026-05-07 22:42 | 11.44649 | 122.64290 | 8524 ft | 220 kts | 342° |
| 2026-05-07 22:42 | 11.46049 | 122.63664 | 8528 ft | 220 kts | 342° |
| 2026-05-07 22:42 | 11.47453 | 122.63036 | 8527 ft | 221 kts | 342° |
| 2026-05-07 22:43 | 11.48867 | 122.62403 | 8521 ft | 222 kts | 341° |
| 2026-05-07 22:43 | 11.50287 | 122.61765 | 8528 ft | 224 kts | 342° |
| 2026-05-07 22:43 | 11.51709 | 122.61120 | 8524 ft | 224 kts | 342° |
| 2026-05-07 22:43 | 11.53134 | 122.60478 | 8521 ft | 224 kts | 342° |
| 2026-05-07 22:44 | 11.54556 | 122.59840 | 8522 ft | 223 kts | 342° |
| 2026-05-07 22:44 | 11.55993 | 122.59249 | 8522 ft | 223 kts | 345° |
| 2026-05-07 22:44 | 11.57437 | 122.58684 | 8521 ft | 222 kts | 345° |
| 2026-05-07 22:44 | 11.58879 | 122.58120 | 8523 ft | 222 kts | 345° |
| 2026-05-07 22:45 | 11.60321 | 122.57555 | 8522 ft | 222 kts | 345° |
| 2026-05-07 22:45 | 11.61764 | 122.56990 | 8522 ft | 222 kts | 345° |
| 2026-05-07 22:45 | 11.63209 | 122.56425 | 8522 ft | 222 kts | 345° |
| 2026-05-07 22:45 | 11.64655 | 122.55871 | 8522 ft | 222 kts | 346° |
| 2026-05-07 22:46 | 11.66111 | 122.55352 | 8524 ft | 222 kts | 347° |
| 2026-05-07 22:46 | 11.67574 | 122.54837 | 8525 ft | 223 kts | 347° |
| 2026-05-07 22:46 | 11.68325 | 122.54573 | 8522 ft | 223 kts | 347° |
| 2026-05-07 22:46 | 11.69784 | 122.54064 | 8521 ft | 225 kts | 347° |
| 2026-05-07 22:47 | 11.70711 | 122.53740 | 8518 ft | 225 kts | 347° |
| 2026-05-07 22:47 | 11.72186 | 122.53226 | 8518 ft | 224 kts | 347° |
| 2026-05-07 22:47 | 11.73641 | 122.52720 | 8522 ft | 224 kts | 347° |
| 2026-05-07 22:47 | 11.75136 | 122.52201 | 8519 ft | 224 kts | 347° |
| 2026-05-07 22:48 | 11.76595 | 122.51695 | 8521 ft | 225 kts | 347° |
| 2026-05-07 22:48 | 11.78075 | 122.51181 | 8526 ft | 225 kts | 347° |
| 2026-05-07 22:48 | 11.79560 | 122.50665 | 8516 ft | 225 kts | 347° |
| 2026-05-07 22:48 | 11.81000 | 122.50053 | 8501 ft | 225 kts | 337° |
| 2026-05-07 22:49 | 11.82334 | 122.49211 | 8523 ft | 226 kts | 330° |
| 2026-05-07 22:49 | 11.83576 | 122.48213 | 8530 ft | 228 kts | 326° |
| 2026-05-07 22:49 | 11.84802 | 122.47188 | 8532 ft | 229 kts | 327° |
| 2026-05-07 22:49 | 11.86083 | 122.46219 | 8515 ft | 229 kts | 328° |
| 2026-05-07 22:50 | 11.87370 | 122.45256 | 8522 ft | 229 kts | 329° |
| 2026-05-07 22:50 | 11.88661 | 122.44294 | 8508 ft | 230 kts | 329° |
| 2026-05-07 22:50 | 11.89953 | 122.43332 | 8515 ft | 229 kts | 329° |
| 2026-05-07 22:50 | 11.91242 | 122.42368 | 8521 ft | 229 kts | 329° |
| 2026-05-07 22:51 | 11.92529 | 122.41406 | 8522 ft | 229 kts | 329° |
| 2026-05-07 22:51 | 11.93824 | 122.40454 | 8520 ft | 229 kts | 329° |
| 2026-05-07 22:51 | 11.95116 | 122.39499 | 8519 ft | 229 kts | 329° |
| 2026-05-07 22:51 | 11.96404 | 122.38538 | 8519 ft | 229 kts | 329° |
| 2026-05-07 22:52 | 11.97684 | 122.37579 | 8521 ft | 228 kts | 329° |
| 2026-05-07 22:52 | 11.98962 | 122.36623 | 8518 ft | 228 kts | 329° |
| 2026-05-07 22:52 | 12.00242 | 122.35667 | 8520 ft | 228 kts | 329° |
| 2026-05-07 22:52 | 12.01521 | 122.34711 | 8519 ft | 228 kts | 329° |
| 2026-05-07 22:53 | 12.02801 | 122.33751 | 8521 ft | 228 kts | 329° |
| 2026-05-07 22:53 | 12.04082 | 122.32794 | 8518 ft | 228 kts | 329° |
| 2026-05-07 22:53 | 12.05364 | 122.31836 | 8518 ft | 228 kts | 329° |
| 2026-05-07 22:53 | 12.06632 | 122.30889 | 8519 ft | 228 kts | 329° |
| 2026-05-07 22:54 | 12.07914 | 122.29929 | 8519 ft | 228 kts | 329° |
| 2026-05-07 22:54 | 12.09198 | 122.28970 | 8512 ft | 228 kts | 329° |
| 2026-05-07 22:54 | 12.10481 | 122.28015 | 8518 ft | 228 kts | 328° |
| 2026-05-07 22:54 | 12.11763 | 122.27052 | 8507 ft | 228 kts | 328° |
| 2026-05-07 22:55 | 12.13038 | 122.26094 | 8521 ft | 228 kts | 328° |
| 2026-05-07 22:55 | 12.14314 | 122.25138 | 8525 ft | 228 kts | 329° |
| 2026-05-07 22:55 | 12.15594 | 122.24180 | 8520 ft | 228 kts | 329° |
| 2026-05-07 22:55 | 12.16874 | 122.23222 | 8520 ft | 228 kts | 329° |
| 2026-05-07 22:56 | 12.18152 | 122.22265 | 8523 ft | 228 kts | 329° |
| 2026-05-07 22:56 | 12.19433 | 122.21307 | 8523 ft | 228 kts | 329° |
| 2026-05-07 22:56 | 12.20711 | 122.20350 | 8523 ft | 228 kts | 329° |
| 2026-05-07 22:56 | 12.21991 | 122.19391 | 8521 ft | 228 kts | 328° |
| 2026-05-07 22:57 | 12.23269 | 122.18433 | 8521 ft | 228 kts | 328° |
| 2026-05-07 22:57 | 12.24548 | 122.17475 | 8523 ft | 228 kts | 328° |
| 2026-05-07 22:57 | 12.25811 | 122.16527 | 8523 ft | 228 kts | 328° |
| 2026-05-07 22:57 | 12.27092 | 122.15566 | 8510 ft | 228 kts | 329° |
| 2026-05-07 22:58 | 12.28372 | 122.14607 | 8522 ft | 228 kts | 328° |
| 2026-05-07 22:58 | 12.29653 | 122.13649 | 8518 ft | 228 kts | 328° |
| 2026-05-07 22:58 | 12.30929 | 122.12693 | 8523 ft | 227 kts | 328° |
| 2026-05-07 22:58 | 12.32204 | 122.11736 | 8524 ft | 227 kts | 328° |
| 2026-05-07 22:59 | 12.33479 | 122.10779 | 8521 ft | 228 kts | 328° |
| 2026-05-07 22:59 | 12.34755 | 122.09821 | 8522 ft | 228 kts | 328° |
| 2026-05-07 22:59 | 12.36031 | 122.08864 | 8525 ft | 228 kts | 328° |
| 2026-05-07 22:59 | 12.37309 | 122.07904 | 8526 ft | 228 kts | 328° |
| 2026-05-07 23:00 | 12.38591 | 122.06942 | 8524 ft | 228 kts | 328° |
| 2026-05-07 23:00 | 12.39866 | 122.05988 | 8529 ft | 228 kts | 328° |
| 2026-05-07 23:00 | 12.41143 | 122.05029 | 8523 ft | 228 kts | 328° |
| 2026-05-07 23:00 | 12.42422 | 122.04068 | 8521 ft | 228 kts | 328° |
| 2026-05-07 23:01 | 12.43702 | 122.03112 | 8522 ft | 228 kts | 328° |
| 2026-05-07 23:01 | 12.44982 | 122.02152 | 8525 ft | 228 kts | 328° |
| 2026-05-07 23:01 | 12.46261 | 122.01186 | 8526 ft | 229 kts | 328° |
| 2026-05-07 23:01 | 12.47542 | 122.00223 | 8525 ft | 229 kts | 328° |
| 2026-05-07 23:02 | 12.48810 | 121.99272 | 8525 ft | 229 kts | 328° |
| 2026-05-07 23:02 | 12.50109 | 121.98298 | 8528 ft | 228 kts | 328° |
| 2026-05-07 23:02 | 12.51389 | 121.97335 | 8529 ft | 229 kts | 328° |
| 2026-05-07 23:02 | 12.52654 | 121.96385 | 8532 ft | 229 kts | 328° |
| 2026-05-07 23:03 | 12.53940 | 121.95418 | 8531 ft | 229 kts | 328° |
| 2026-05-07 23:03 | 12.55225 | 121.94452 | 8529 ft | 229 kts | 328° |
| 2026-05-07 23:03 | 12.56511 | 121.93486 | 8532 ft | 229 kts | 328° |
| 2026-05-07 23:03 | 12.57792 | 121.92523 | 8534 ft | 228 kts | 328° |
| 2026-05-07 23:04 | 12.59069 | 121.91563 | 8532 ft | 228 kts | 328° |
| 2026-05-07 23:04 | 12.60352 | 121.90598 | 8534 ft | 228 kts | 328° |
| 2026-05-07 23:04 | 12.61630 | 121.89638 | 8533 ft | 228 kts | 328° |
| 2026-05-07 23:04 | 12.62907 | 121.88677 | 8535 ft | 228 kts | 328° |
| 2026-05-07 23:05 | 12.64184 | 121.87716 | 8533 ft | 228 kts | 328° |
| 2026-05-07 23:05 | 12.65461 | 121.86754 | 8534 ft | 228 kts | 328° |
| 2026-05-07 23:05 | 12.66737 | 121.85794 | 8534 ft | 227 kts | 328° |
| 2026-05-07 23:05 | 12.68008 | 121.84838 | 8533 ft | 227 kts | 328° |
| 2026-05-07 23:06 | 12.69279 | 121.83882 | 8537 ft | 227 kts | 328° |
| 2026-05-07 23:06 | 12.70550 | 121.82923 | 8536 ft | 227 kts | 328° |
| 2026-05-07 23:06 | 12.71828 | 121.81961 | 8537 ft | 228 kts | 328° |
| 2026-05-07 23:06 | 12.73089 | 121.81013 | 8537 ft | 228 kts | 328° |
| 2026-05-07 23:07 | 12.74366 | 121.80052 | 8535 ft | 228 kts | 328° |
| 2026-05-07 23:07 | 12.75646 | 121.79089 | 8537 ft | 229 kts | 328° |
| 2026-05-07 23:07 | 12.76927 | 121.78124 | 8534 ft | 229 kts | 328° |
| 2026-05-07 23:07 | 12.78211 | 121.77161 | 8536 ft | 229 kts | 328° |
| 2026-05-07 23:08 | 12.79491 | 121.76200 | 8535 ft | 228 kts | 327° |
| 2026-05-07 23:08 | 12.80766 | 121.75234 | 8537 ft | 228 kts | 327° |
| 2026-05-07 23:08 | 12.82043 | 121.74269 | 8542 ft | 228 kts | 327° |
| 2026-05-07 23:08 | 12.83326 | 121.73301 | 8534 ft | 228 kts | 327° |
| 2026-05-07 23:09 | 12.84603 | 121.72338 | 8543 ft | 228 kts | 327° |
| 2026-05-07 23:09 | 12.85879 | 121.71376 | 8542 ft | 228 kts | 327° |
| 2026-05-07 23:09 | 12.87156 | 121.70414 | 8542 ft | 228 kts | 327° |
| 2026-05-07 23:09 | 12.88001 | 121.69778 | 8542 ft | 228 kts | 327° |
| 2026-05-07 23:10 | 12.89711 | 121.68489 | 8540 ft | 228 kts | 327° |
| 2026-05-07 23:10 | 12.90554 | 121.67852 | 8541 ft | 228 kts | 327° |
| 2026-05-07 23:10 | 12.91831 | 121.66889 | 8542 ft | 228 kts | 327° |
| 2026-05-07 23:10 | 12.93104 | 121.65930 | 8542 ft | 227 kts | 327° |
| 2026-05-07 23:11 | 12.94381 | 121.64967 | 8544 ft | 227 kts | 327° |
| 2026-05-07 23:11 | 12.95655 | 121.64005 | 8542 ft | 228 kts | 327° |
| 2026-05-07 23:11 | 12.96930 | 121.63042 | 8547 ft | 228 kts | 327° |
| 2026-05-07 23:11 | 12.98207 | 121.62077 | 8547 ft | 228 kts | 327° |
| 2026-05-07 23:12 | 12.99483 | 121.61113 | 8538 ft | 228 kts | 327° |
| 2026-05-07 23:12 | 13.00759 | 121.60151 | 8549 ft | 227 kts | 327° |
| 2026-05-07 23:12 | 13.02033 | 121.59190 | 8551 ft | 227 kts | 327° |
| 2026-05-07 23:12 | 13.03307 | 121.58228 | 8550 ft | 228 kts | 327° |
| 2026-05-07 23:13 | 13.04581 | 121.57265 | 8546 ft | 227 kts | 327° |
| 2026-05-07 23:13 | 13.05854 | 121.56303 | 8549 ft | 227 kts | 327° |
| 2026-05-07 23:13 | 13.07130 | 121.55340 | 8549 ft | 227 kts | 327° |
| 2026-05-07 23:13 | 13.08403 | 121.54378 | 8550 ft | 227 kts | 327° |
| 2026-05-07 23:14 | 13.09677 | 121.53415 | 8550 ft | 228 kts | 327° |
| 2026-05-07 23:14 | 13.10952 | 121.52451 | 8552 ft | 228 kts | 327° |
| 2026-05-07 23:14 | 13.12231 | 121.51483 | 8552 ft | 229 kts | 327° |
| 2026-05-07 23:14 | 13.13516 | 121.50511 | 8544 ft | 230 kts | 327° |
| 2026-05-07 23:15 | 13.14801 | 121.49541 | 8554 ft | 229 kts | 327° |
| 2026-05-07 23:15 | 13.16081 | 121.48574 | 8561 ft | 229 kts | 327° |
| 2026-05-07 23:15 | 13.17362 | 121.47606 | 8560 ft | 229 kts | 327° |
| 2026-05-07 23:15 | 13.18629 | 121.46647 | 8553 ft | 229 kts | 327° |
| 2026-05-07 23:16 | 13.19910 | 121.45676 | 8557 ft | 229 kts | 327° |
| 2026-05-07 23:16 | 13.21192 | 121.44707 | 8556 ft | 229 kts | 327° |
| 2026-05-07 23:16 | 13.22475 | 121.43737 | 8556 ft | 229 kts | 327° |
| 2026-05-07 23:16 | 13.23761 | 121.42763 | 8556 ft | 229 kts | 327° |
| 2026-05-07 23:17 | 13.25042 | 121.41794 | 8553 ft | 229 kts | 327° |
| 2026-05-07 23:17 | 13.26323 | 121.40823 | 8559 ft | 229 kts | 327° |
| 2026-05-07 23:17 | 13.27608 | 121.39850 | 8559 ft | 229 kts | 327° |
| 2026-05-07 23:17 | 13.28892 | 121.38880 | 8555 ft | 229 kts | 327° |
| 2026-05-07 23:18 | 13.30174 | 121.37909 | 8560 ft | 229 kts | 327° |
| 2026-05-07 23:18 | 13.31456 | 121.36937 | 8561 ft | 229 kts | 327° |
| 2026-05-07 23:18 | 13.32734 | 121.35970 | 8556 ft | 229 kts | 327° |
| 2026-05-07 23:18 | 13.34017 | 121.34998 | 8556 ft | 229 kts | 327° |
| 2026-05-07 23:19 | 13.35298 | 121.34027 | 8557 ft | 229 kts | 327° |
| 2026-05-07 23:19 | 13.36581 | 121.33055 | 8545 ft | 229 kts | 327° |
| 2026-05-07 23:19 | 13.37863 | 121.32083 | 8557 ft | 229 kts | 327° |
| 2026-05-07 23:19 | 13.39145 | 121.31111 | 8557 ft | 229 kts | 327° |
| 2026-05-07 23:20 | 13.40413 | 121.30150 | 8554 ft | 229 kts | 327° |
| 2026-05-07 23:20 | 13.41696 | 121.29176 | 8555 ft | 229 kts | 327° |
| 2026-05-07 23:20 | 13.42978 | 121.28204 | 8560 ft | 229 kts | 327° |
| 2026-05-07 23:20 | 13.44261 | 121.27231 | 8560 ft | 229 kts | 327° |
| 2026-05-07 23:21 | 13.45541 | 121.26260 | 8560 ft | 229 kts | 327° |
| 2026-05-07 23:21 | 13.46822 | 121.25291 | 8553 ft | 228 kts | 327° |
| 2026-05-07 23:21 | 13.48101 | 121.24322 | 8554 ft | 228 kts | 327° |
| 2026-05-07 23:21 | 13.49379 | 121.23351 | 8554 ft | 228 kts | 327° |
| 2026-05-07 23:22 | 13.50654 | 121.22382 | 8556 ft | 228 kts | 327° |
| 2026-05-07 23:22 | 13.51933 | 121.21412 | 8556 ft | 228 kts | 327° |
| 2026-05-07 23:22 | 13.53210 | 121.20442 | 8558 ft | 229 kts | 326° |
| 2026-05-07 23:22 | 13.54492 | 121.19467 | 8538 ft | 230 kts | 327° |
| 2026-05-07 23:23 | 13.55780 | 121.18490 | 8518 ft | 231 kts | 326° |
| 2026-05-07 23:23 | 13.57054 | 121.17523 | 8501 ft | 231 kts | 326° |
| 2026-05-07 23:23 | 13.58341 | 121.16544 | 8501 ft | 230 kts | 326° |
| 2026-05-07 23:23 | 13.59625 | 121.15568 | 8503 ft | 229 kts | 326° |
| 2026-05-07 23:24 | 13.60902 | 121.14599 | 8494 ft | 229 kts | 326° |
| 2026-05-07 23:24 | 13.62180 | 121.13628 | 8496 ft | 229 kts | 326° |
| 2026-05-07 23:24 | 13.63460 | 121.12654 | 8498 ft | 229 kts | 326° |
| 2026-05-07 23:24 | 13.64739 | 121.11684 | 8501 ft | 229 kts | 326° |
| 2026-05-07 23:25 | 13.66026 | 121.10705 | 8496 ft | 230 kts | 326° |
| 2026-05-07 23:25 | 13.67310 | 121.09725 | 8492 ft | 230 kts | 327° |
| 2026-05-07 23:25 | 13.68596 | 121.08749 | 8496 ft | 229 kts | 326° |
| 2026-05-07 23:25 | 13.69881 | 121.07773 | 8497 ft | 229 kts | 326° |
| 2026-05-07 23:26 | 13.71152 | 121.06800 | 8490 ft | 228 kts | 326° |
| 2026-05-07 23:26 | 13.72422 | 121.05813 | 8496 ft | 228 kts | 326° |
| 2026-05-07 23:26 | 13.73686 | 121.04825 | 8491 ft | 228 kts | 326° |
| 2026-05-07 23:26 | 13.74951 | 121.03839 | 8492 ft | 228 kts | 326° |
| 2026-05-07 23:27 | 13.77484 | 121.01865 | 8490 ft | 229 kts | 326° |
| 2026-05-07 23:27 | 13.78750 | 121.00875 | 8491 ft | 229 kts | 326° |
| 2026-05-07 23:27 | 13.80016 | 120.99876 | 8493 ft | 229 kts | 326° |
| 2026-05-07 23:28 | 13.81281 | 120.98879 | 8488 ft | 228 kts | 326° |
| 2026-05-07 23:28 | 13.82542 | 120.97890 | 8490 ft | 228 kts | 326° |
| 2026-05-07 23:28 | 13.83776 | 120.96921 | 8469 ft | 225 kts | 326° |
| 2026-05-07 23:28 | 13.85020 | 120.95945 | 8342 ft | 225 kts | 325° |
| 2026-05-07 23:29 | 13.86263 | 120.94972 | 8205 ft | 225 kts | 326° |
| 2026-05-07 23:29 | 13.87530 | 120.94034 | 8076 ft | 224 kts | 327° |
| 2026-05-07 23:29 | 13.88802 | 120.93110 | 7948 ft | 224 kts | 328° |
| 2026-05-07 23:29 | 13.90094 | 120.92216 | 7819 ft | 224 kts | 329° |
| 2026-05-07 23:30 | 13.91405 | 120.91349 | 7693 ft | 223 kts | 332° |
| 2026-05-07 23:30 | 13.92743 | 120.90536 | 7570 ft | 222 kts | 333° |
| 2026-05-07 23:30 | 13.94085 | 120.89747 | 7448 ft | 221 kts | 334° |
| 2026-05-07 23:30 | 13.95449 | 120.89023 | 7341 ft | 220 kts | 338° |
| 2026-05-07 23:31 | 13.96863 | 120.88424 | 7191 ft | 220 kts | 344° |
| 2026-05-07 23:31 | 13.98330 | 120.87966 | 7051 ft | 220 kts | 349° |
| 2026-05-07 23:31 | 13.99813 | 120.87600 | 6940 ft | 218 kts | 352° |
| 2026-05-07 23:31 | 14.01291 | 120.87303 | 6834 ft | 215 kts | 354° |
| 2026-05-07 23:32 | 14.02764 | 120.87048 | 6674 ft | 215 kts | 355° |
| 2026-05-07 23:32 | 14.04239 | 120.86836 | 6530 ft | 214 kts | 357° |
| 2026-05-07 23:32 | 14.05710 | 120.86652 | 6409 ft | 212 kts | 358° |
| 2026-05-07 23:32 | 14.07168 | 120.86507 | 6270 ft | 209 kts | 360° |
| 2026-05-07 23:33 | 14.08620 | 120.86413 | 6119 ft | 209 kts | 2° |
| 2026-05-07 23:33 | 14.10063 | 120.86369 | 5920 ft | 207 kts | 4° |
| 2026-05-07 23:33 | 14.11504 | 120.86356 | 5683 ft | 206 kts | 5° |
| 2026-05-07 23:33 | 14.12929 | 120.86352 | 5502 ft | 205 kts | 6° |
| 2026-05-07 23:34 | 14.14336 | 120.86405 | 5340 ft | 200 kts | 8° |
| 2026-05-07 23:34 | 14.15723 | 120.86489 | 5149 ft | 199 kts | 9° |
| 2026-05-07 23:34 | 14.17112 | 120.86584 | 4917 ft | 200 kts | 9° |
| 2026-05-07 23:34 | 14.18498 | 120.86663 | 4724 ft | 199 kts | 8° |
| 2026-05-07 23:35 | 14.19858 | 120.86727 | 4540 ft | 198 kts | 8° |
| 2026-05-07 23:35 | 14.21229 | 120.86800 | 4346 ft | 196 kts | 9° |
| 2026-05-07 23:35 | 14.22590 | 120.86877 | 4101 ft | 195 kts | 9° |
| 2026-05-07 23:35 | 14.23948 | 120.86955 | 3844 ft | 196 kts | 9° |
| 2026-05-07 23:36 | 14.25308 | 120.86974 | 3568 ft | 197 kts | 1° |
| 2026-05-07 23:36 | 14.26618 | 120.86647 | 3311 ft | 194 kts | 343° |
| 2026-05-07 23:36 | 14.27744 | 120.85863 | 3031 ft | 201 kts | 321° |
| 2026-05-07 23:36 | 14.28548 | 120.84666 | 2847 ft | 205 kts | 301° |
| 2026-05-07 23:37 | 14.29190 | 120.83361 | 2733 ft | 204 kts | 301° |
| 2026-05-07 23:37 | 14.29866 | 120.82076 | 2571 ft | 205 kts | 303° |
| 2026-05-07 23:37 | 14.30579 | 120.80798 | 2447 ft | 208 kts | 304° |
| 2026-05-07 23:37 | 14.31317 | 120.79509 | 2443 ft | 209 kts | 305° |
| 2026-05-07 23:38 | 14.32041 | 120.78214 | 2460 ft | 207 kts | 303° |
| 2026-05-07 23:38 | 14.32708 | 120.76893 | 2413 ft | 210 kts | 301° |
| 2026-05-07 23:38 | 14.33450 | 120.75596 | 2395 ft | 208 kts | 314° |
| 2026-05-07 23:38 | 14.34499 | 120.74591 | 2370 ft | 204 kts | 331° |
| 2026-05-07 23:39 | 14.35687 | 120.73827 | 2362 ft | 199 kts | 338° |
| 2026-05-07 23:39 | 14.36891 | 120.73163 | 2366 ft | 194 kts | 341° |
| 2026-05-07 23:39 | 14.38144 | 120.72666 | 2327 ft | 192 kts | 354° |
| 2026-05-07 23:39 | 14.39429 | 120.72544 | 2264 ft | 182 kts | 11° |
| 2026-05-07 23:40 | 14.40639 | 120.72865 | 2091 ft | 181 kts | 32° |
| 2026-05-07 23:40 | 14.41622 | 120.73594 | 2056 ft | 167 kts | 45° |
| 2026-05-07 23:40 | 14.42465 | 120.74366 | 2048 ft | 153 kts | 46° |
| 2026-05-07 23:40 | 14.43230 | 120.75072 | 2016 ft | 144 kts | 46° |
| 2026-05-07 23:41 | 14.43899 | 120.75824 | 1995 ft | 142 kts | 59° |
| 2026-05-07 23:41 | 14.44353 | 120.76719 | 1918 ft | 140 kts | 70° |
| 2026-05-07 23:41 | 14.44679 | 120.77645 | 1900 ft | 136 kts | 73° |
| 2026-05-07 23:41 | 14.44966 | 120.78562 | 1900 ft | 136 kts | 74° |
| 2026-05-07 23:42 | 14.45235 | 120.79514 | 1881 ft | 143 kts | 73° |
| 2026-05-07 23:42 | 14.45574 | 120.80496 | 1836 ft | 145 kts | 68° |
| 2026-05-07 23:42 | 14.45940 | 120.81405 | 1732 ft | 127 kts | 67° |
| 2026-05-07 23:42 | 14.46274 | 120.82224 | 1557 ft | 121 kts | 66° |
| 2026-05-07 23:43 | 14.46599 | 120.83009 | 1362 ft | 117 kts | 67° |
| 2026-05-07 23:43 | 14.46904 | 120.83795 | 1118 ft | 118 kts | 68° |
| 2026-05-07 23:43 | 14.47198 | 120.84572 | 925 ft | 113 kts | 66° |
| 2026-05-07 23:43 | 14.47495 | 120.85305 | 785 ft | 110 kts | 65° |
| 2026-05-07 23:44 | 14.47797 | 120.86034 | 660 ft | 110 kts | 67° |
| 2026-05-07 23:44 | 14.48074 | 120.86756 | 564 ft | 109 kts | 68° |
| 2026-05-07 23:44 | 14.48360 | 120.87463 | 401 ft | 103 kts | 66° |
| 2026-05-07 23:44 | 14.48639 | 120.88136 | 285 ft | 100 kts | 69° |
| 2026-05-07 23:45 | 14.48886 | 120.88787 | 183 ft | 95 kts | 69° |
| 2026-05-07 23:45 | 14.49134 | 120.89398 | 60 ft | 89 kts | 70° |
| 2026-05-07 23:45 | 14.49338 | 120.89914 | 19 ft | 59 kts | 67° |
| 2026-05-07 23:45 | 14.49462 | 120.90232 | 14 ft | 39 kts | 68° |
| 2026-05-07 23:46 | 14.49553 | 120.90464 | 13 ft | 32 kts | 68° |
| 2026-05-07 23:46 | 14.49635 | 120.90663 | 12 ft | 29 kts | 67° |
| 2026-05-07 23:46 | 14.49701 | 120.90837 | 17 ft | 17 kts | 91° |
| 2026-05-07 23:46 | 14.49639 | 120.90832 | 16 ft | 16 kts | 251° |
| 2026-05-07 23:47 | 14.49585 | 120.90694 | 13 ft | 25 kts | 247° |
| 2026-05-07 23:47 | 14.49521 | 120.90530 | 12 ft | 22 kts | 251° |
| 2026-05-07 23:47 | 14.49458 | 120.90372 | 11 ft | 25 kts | 247° |
| 2026-05-07 23:47 | 14.49390 | 120.90207 | 15 ft | 22 kts | 242° |
| 2026-05-07 23:48 | 14.49338 | 120.90070 | 17 ft | 21 kts | 247° |
| 2026-05-07 23:48 | 14.49281 | 120.89932 | 19 ft | 20 kts | 249° |
| 2026-05-07 23:48 | 14.49231 | 120.89806 | 21 ft | 16 kts | 246° |
| 2026-05-07 23:48 | 14.49174 | 120.89721 | 19 ft | 9 kts | 219° |
| 2026-05-07 23:49 | 14.49170 | 120.89699 | 19 ft | 0 kts | 324° |
| 2026-05-07 23:50 | 14.49165 | 120.89703 | 19 ft | 3 kts | 324° |
| 2026-05-07 23:50 | 14.49164 | 120.89703 | 19 ft | 0 kts | 324° |